CDT,Max TemperatureF,Mean TemperatureF,Min TemperatureF,Max Dew PointF,MeanDew PointF,Min DewpointF,Max Humidity, Mean Humidity, Min Humidity, Max Sea Level PressureIn, Mean Sea Level PressureIn, Min Sea Level PressureIn, Max VisibilityMiles, Mean VisibilityMiles, Min VisibilityMiles, Max Wind SpeedMPH, Mean Wind SpeedMPH, Max Gust SpeedMPH,PrecipitationIn, CloudCover, Events, WindDirDegrees
2014-5-1,50,44,37,39,37,35,93,77,63,29.84,29.78,29.71,10,10,4,14,11,22,0.00,8,Rain,321
2014-5-2,61,50,42,43,40,35,85,66,48,29.83,29.68,29.58,10,10,9,16,7,22,0.00,6,,257
2014-5-3,62,52,45,38,33,29,66,50,32,29.96,29.83,29.72,10,10,10,20,10,29,0.00,4,,291
2014-5-4,59,48,37,31,27,23,70,45,25,30.14,30.04,29.98,10,10,9,15,8,23,0.00,1,,32
2014-5-5,66,58,51,34,32,29,50,38,28,30.00,29.96,29.91,10,10,6,14,6,20,0.00,3,,89
2014-5-6,66,57,48,38,35,31,59,41,30,29.96,29.86,29.77,10,10,6,21,12,30,0.00,2,,101
2014-5-7,64,58,52,50,44,36,77,59,49,29.78,29.72,29.64,10,10,7,15,11,26,0.00,4,Rain-Thunderstorm,82
2014-5-8,72,62,53,61,54,48,97,87,59,29.77,29.62,29.50,10,5,1,28,9,39,0.50,5,Rain-Thunderstorm,53
2014-5-9,60,54,46,58,47,37,100,79,49,29.82,29.61,29.49,10,7,0,20,9,28,0.00,6,Fog,242
2014-5-10,73,57,43,54,44,35,89,66,34,29.88,29.84,29.78,10,10,6,17,7,25,0.11,3,Rain-Thunderstorm,150
2014-5-11,70,59,48,58,52,46,100,84,58,29.89,29.81,29.74,10,6,0,14,4,,0.29,3,Fog-Rain-Thunderstorm,74
2014-5-12,62,56,50,60,55,46,97,92,86,29.82,29.72,29.66,10,6,1,15,7,21,0.41,7,Rain-Thunderstorm,332
2014-5-13,54,50,44,44,38,33,83,66,48,30.20,30.04,29.83,10,10,10,17,13,25,0.00,6,,293
2014-5-14,60,48,37,38,32,27,89,56,31,30.23,30.19,30.14,10,10,9,14,6,21,0.00,2,,294
2014-5-15,48,44,41,31,30,27,67,55,44,30.18,30.14,30.11,10,10,8,14,10,20,0.00,7,,2
2014-5-16,55,47,39,32,27,21,73,46,27,30.11,30.08,30.05,10,10,10,14,6,21,0.00,8,,310
2014-5-17,66,52,37,34,30,28,76,45,24,30.06,30.03,29.99,10,10,6,14,7,21,0.00,1,,244
2014-5-18,73,59,46,41,35,30,61,38,25,30.08,30.03,29.96,10,10,2,20,9,29,0.00,0,,204
2014-5-19,61,57,53,52,50,38,94,85,42,30.00,29.85,29.76,10,4,1,21,12,26,0.72,8,Rain-Thunderstorm,121
2014-5-20,79,64,50,61,55,48,100,82,36,29.87,29.82,29.74,10,4,0,8,2,,0.01,3,Fog,250
2014-5-21,66,60,54,58,47,44,86,64,50,30.11,29.99,29.84,10,10,6,15,9,21,0.00,2,,313
2014-5-22,71,59,48,46,43,40,83,58,35,30.21,30.17,30.13,10,10,7,10,6,,0.00,0,,340
2014-5-23,78,62,48,49,45,43,90,53,30,30.23,30.18,30.10,10,10,8,8,2,,0.00,0,,124
2014-5-24,82,72,61,50,46,44,54,42,29,30.14,30.09,30.01,10,10,10,13,8,,0.00,2,,164
2014-5-25,80,69,59,62,56,44,73,57,43,30.05,29.96,29.89,10,10,10,15,8,20,0.00,4,,167
2014-5-26,84,74,66,65,64,60,90,73,49,29.91,29.88,29.84,10,9,6,20,8,28,0.00,3,Thunderstorm,232
2014-5-27,73,68,62,67,64,59,94,84,68,29.98,29.91,29.86,10,8,2,14,6,25,0.12,6,Rain,4
2014-5-28,81,69,57,61,56,52,90,65,39,30.06,30.03,29.97,10,10,9,10,5,,0.00,2,,52
2014-5-29,84,70,57,57,48,43,93,45,24,30.12,30.07,30.03,10,10,6,13,6,22,0.00,0,,106
2014-5-30,90,76,64,63,56,45,78,50,36,30.12,30.06,29.99,10,10,8,15,7,18,0.00,1,,123
2014-5-31,88,77,68,68,65,53,94,78,45,30.04,29.95,29.87,10,7,2,21,9,33,1.37,5,Rain-Thunderstorm,156